Time;durP1;ratioP1;P1;durP2;ratioP2;P2;SDS_P1;SDS_P2;PMS_P1;PMS_P2;Temp;Humidity;BMP_temperature;BMP_pressure;BME280_temperature;BME280_humidity;BME280_pressure;Samples;Min_cycle;Max_cycle;Signal;HPM_P1;HPM_P2
2022/05/01 00:01:35;;;;;;;22.67;13.63;;;14.20;99.90;;;;;;5095618;28;20032;-74
2022/05/01 00:04:01;;;;;;;14.10;12.48;;;14.20;99.90;;;;;;5095549;28;20537;-74
2022/05/01 00:06:27;;;;;;;14.45;12.75;;;14.10;99.90;;;;;;5097076;28;20020;-74
2022/05/01 00:08:53;;;;;;;17.60;13.70;;;14.10;99.90;;;;;;5095759;28;20028;-74
2022/05/01 00:11:19;;;;;;;15.93;12.27;;;14.10;99.90;;;;;;5097098;28;20020;-74
2022/05/01 00:13:46;;;;;;;15.95;11.60;;;14.00;99.90;;;;;;5096944;28;20028;-74
2022/05/01 00:16:13;;;;;;;17.98;13.60;;;14.00;99.90;;;;;;5085266;28;20385;-74
2022/05/01 00:18:39;;;;;;;16.95;13.68;;;13.90;99.90;;;;;;5095750;28;20028;-74
2022/05/01 00:21:05;;;;;;;19.38;13.15;;;13.90;99.90;;;;;;5097240;28;20024;-74
2022/05/01 00:23:31;;;;;;;15.10;13.18;;;13.80;99.90;;;;;;5095439;28;20035;-74
2022/05/01 00:25:59;;;;;;;16.95;13.27;;;13.80;99.90;;;;;;5096966;28;20087;-74
2022/05/01 00:28:25;;;;;;;21.23;13.50;;;13.70;99.90;;;;;;5096839;28;20106;-74
2022/05/01 00:30:51;;;;;;;16.85;13.18;;;13.70;99.90;;;;;;5093482;28;20052;-74
2022/05/01 00:38:45;;;;;;;19.15;14.73;;;13.60;99.90;;;;;;5100431;28;20081;-74
2022/05/01 00:41:12;;;;;;;21.95;13.75;;;13.60;99.90;;;;;;5100197;28;20027;-74
2022/05/01 00:44:00;;;;;;;23.08;14.32;;;13.50;99.90;;;;;;5098987;28;20032;-74
2022/05/01 00:46:28;;;;;;;20.50;15.00;;;13.50;99.90;;;;;;5098431;28;20474;-74
2022/05/01 00:48:54;;;;;;;17.95;13.55;;;13.50;99.90;;;;;;5100038;28;20070;-74
2022/05/01 00:51:21;;;;;;;17.83;14.18;;;13.50;99.90;;;;;;5098802;28;20020;-74
2022/05/01 00:53:51;;;;;;;14.98;13.18;;;13.50;99.90;;;;;;5100009;28;20023;-74
2022/05/01 00:56:17;;;;;;;15.93;13.55;;;13.40;99.90;;;;;;5100414;28;20352;-74
2022/05/01 00:58:45;;;;;;;20.17;14.45;;;13.40;99.90;;;;;;5099925;28;20028;-74
2022/05/01 01:01:14;;;;;;;17.83;14.18;;;13.40;99.90;;;;;;5098536;28;20119;-74
2022/05/01 01:03:40;;;;;;;19.90;14.02;;;13.40;99.90;;;;;;5099897;28;20054;-74
2022/05/01 01:06:06;;;;;;;22.30;15.82;;;13.40;99.90;;;;;;5099906;28;20016;-75
2022/05/01 01:08:32;;;;;;;23.55;15.85;;;13.30;99.90;;;;;;5098345;28;20028;-74
2022/05/01 01:10:58;;;;;;;19.92;15.45;;;13.30;99.90;;;;;;5098527;28;20016;-75
2022/05/01 01:13:26;;;;;;;17.67;15.30;;;13.30;99.90;;;;;;5099593;28;20487;-73
2022/05/01 01:15:54;;;;;;;17.42;14.63;;;13.30;99.90;;;;;;5088950;28;20015;-74
2022/05/01 01:18:21;;;;;;;26.20;15.57;;;13.20;99.90;;;;;;5094275;28;20685;-74
2022/05/01 01:20:46;;;;;;;26.30;15.45;;;13.20;99.90;;;;;;5098435;28;20107;-75
2022/05/01 01:23:14;;;;;;;18.33;15.98;;;13.10;99.90;;;;;;5099536;28;20546;-74
2022/05/01 01:25:40;;;;;;;24.75;16.98;;;13.10;99.90;;;;;;5088101;28;20047;-74
2022/05/01 01:28:08;;;;;;;22.42;16.63;;;13.10;99.90;;;;;;5096400;28;20059;-75
2022/05/01 01:33:20;;;;;;;23.95;16.90;;;13.10;99.90;;;;;;5099601;28;20039;-74
2022/05/01 01:35:49;;;;;;;21.83;16.40;;;13.00;99.90;;;;;;5098070;28;20031;-75
2022/05/01 01:38:16;;;;;;;26.92;17.77;;;13.00;99.90;;;;;;5097865;28;20145;-74
2022/05/01 01:40:55;;;;;;;27.98;17.88;;;13.00;99.90;;;;;;5099079;28;20028;-74
2022/05/01 01:43:29;;;;;;;22.13;17.42;;;13.00;99.90;;;;;;5098638;28;20028;-74
2022/05/01 01:45:55;;;;;;;22.85;17.80;;;12.90;99.90;;;;;;5098505;28;20051;-74
2022/05/01 01:48:23;;;;;;;17.58;15.50;;;12.90;99.90;;;;;;5099053;28;20028;-74
2022/05/01 01:50:56;;;;;;;22.52;16.08;;;12.90;99.90;;;;;;5097550;28;20020;-74
2022/05/01 01:53:22;;;;;;;22.55;16.27;;;12.90;99.90;;;;;;5098962;28;20093;-74
2022/05/01 01:55:48;;;;;;;22.67;17.73;;;12.80;99.90;;;;;;5098759;28;20016;-74
2022/05/01 01:58:13;;;;;;;26.77;17.23;;;12.90;99.90;;;;;;5098721;28;20049;-74
2022/05/01 02:00:39;;;;;;;26.08;16.20;;;12.90;99.90;;;;;;5097010;28;20063;-74
2022/05/01 02:03:06;;;;;;;23.30;16.50;;;12.80;99.90;;;;;;5098812;28;20024;-75
2022/05/01 02:05:34;;;;;;;19.13;15.38;;;12.80;99.90;;;;;;5098596;28;20059;-74
2022/05/01 02:08:01;;;;;;;23.70;16.77;;;12.80;99.90;;;;;;5098960;28;20082;-74
2022/05/01 02:10:27;;;;;;;26.60;17.30;;;12.80;99.90;;;;;;5098465;28;20047;-74
2022/05/01 02:12:54;;;;;;;27.58;16.85;;;12.70;99.90;;;;;;5098587;28;20024;-74
2022/05/01 02:15:20;;;;;;;22.05;15.88;;;12.70;99.90;;;;;;5093050;28;20013;-74
2022/05/01 02:17:49;;;;;;;19.67;16.67;;;12.70;99.90;;;;;;5089834;28;20137;-74
2022/05/01 02:20:16;;;;;;;22.60;17.33;;;12.70;99.90;;;;;;5098307;28;20012;-74
2022/05/01 02:22:42;;;;;;;25.33;17.35;;;12.60;99.90;;;;;;5096927;28;20399;-74
2022/05/01 02:25:09;;;;;;;22.52;18.63;;;12.60;99.90;;;;;;5098163;28;20051;-74
2022/05/01 02:27:37;;;;;;;30.75;17.70;;;12.60;99.90;;;;;;5098288;28;20532;-74
2022/05/01 02:30:07;;;;;;;24.50;18.23;;;12.60;99.90;;;;;;5097936;28;20036;-74
2022/05/01 02:32:35;;;;;;;25.45;17.70;;;12.60;99.90;;;;;;5098234;28;20373;-74
2022/05/01 02:35:01;;;;;;;22.48;18.50;;;12.60;99.90;;;;;;5098126;28;20016;-74
2022/05/01 02:37:27;;;;;;;27.08;19.08;;;12.50;99.90;;;;;;5096766;28;20039;-75
2022/05/01 02:39:52;;;;;;;23.77;18.63;;;12.50;99.90;;;;;;5097908;28;20054;-74
2022/05/01 02:42:19;;;;;;;25.65;17.92;;;12.50;99.90;;;;;;5098292;28;20110;-74
2022/05/01 02:44:45;;;;;;;21.58;18.45;;;12.50;99.90;;;;;;5097845;28;20480;-75
2022/05/01 02:47:11;;;;;;;28.38;19.30;;;12.40;99.90;;;;;;5098216;28;20434;-74
2022/05/01 02:49:40;;;;;;;28.17;18.60;;;12.40;99.90;;;;;;5097779;28;20044;-74
2022/05/01 02:52:07;;;;;;;21.15;17.38;;;12.40;99.90;;;;;;5097846;28;20024;-74
2022/05/01 02:54:33;;;;;;;27.08;19.95;;;12.30;99.90;;;;;;5097757;28;20016;-75
2022/05/01 02:56:59;;;;;;;30.50;19.30;;;12.30;99.90;;;;;;5097637;28;20024;-74
2022/05/01 02:59:25;;;;;;;26.38;19.23;;;12.30;99.90;;;;;;5097542;28;20039;-74
2022/05/01 03:01:51;;;;;;;22.95;18.55;;;12.30;99.90;;;;;;5097593;28;20028;-74
2022/05/01 03:04:17;;;;;;;25.77;19.15;;;12.20;99.90;;;;;;5097716;28;20031;-74
2022/05/01 03:06:43;;;;;;;26.77;19.52;;;12.20;99.90;;;;;;5097514;28;20028;-74
2022/05/01 03:09:09;;;;;;;27.42;20.13;;;12.20;99.90;;;;;;5097557;28;20024;-74
2022/05/01 03:11:38;;;;;;;23.00;18.98;;;12.10;99.90;;;;;;5097528;28;20028;-74
2022/05/01 03:14:04;;;;;;;25.90;20.52;;;12.10;99.90;;;;;;5096137;28;21057;-74
2022/05/01 03:16:30;;;;;;;32.95;21.30;;;12.10;99.90;;;;;;5082394;28;20075;-74
2022/05/01 03:24:26;;;;;;;28.10;21.83;;;12.00;99.90;;;;;;5097361;28;20097;-74
2022/05/01 03:26:52;;;;;;;25.00;21.13;;;12.00;99.90;;;;;;5097379;28;20036;-74
2022/05/01 03:29:18;;;;;;;28.75;21.92;;;11.90;99.90;;;;;;5096979;28;20017;-74
2022/05/01 03:31:46;;;;;;;29.42;23.55;;;11.90;99.90;;;;;;5097263;28;20024;-74
2022/05/01 03:34:14;;;;;;;30.63;21.77;;;11.90;99.90;;;;;;5097174;28;20016;-74
2022/05/01 03:36:39;;;;;;;28.58;21.88;;;11.90;99.90;;;;;;5097414;28;20019;-74
2022/05/01 03:39:05;;;;;;;32.33;21.90;;;11.90;99.90;;;;;;5097234;28;20028;-74
2022/05/01 03:41:32;;;;;;;31.00;22.13;;;11.80;99.90;;;;;;5097335;28;20024;-74
2022/05/01 03:43:58;;;;;;;29.42;23.48;;;11.80;99.90;;;;;;5095770;28;20024;-73
2022/05/01 03:46:24;;;;;;;27.63;22.42;;;11.80;99.90;;;;;;5096735;28;20052;-74
2022/05/01 03:48:50;;;;;;;27.85;21.95;;;11.70;99.90;;;;;;5096018;28;20111;-73
2022/05/01 03:51:16;;;;;;;36.28;24.25;;;11.70;99.90;;;;;;5095925;28;20053;-73
2022/05/01 03:53:45;;;;;;;31.58;21.63;;;11.70;99.90;;;;;;5095686;28;20020;-74
2022/05/01 03:56:11;;;;;;;42.67;25.00;;;11.70;99.90;;;;;;5076928;28;20464;-74
2022/05/01 03:58:38;;;;;;;31.85;24.35;;;11.60;99.90;;;;;;5089504;28;20031;-74
2022/05/01 04:01:04;;;;;;;33.53;23.70;;;11.60;99.90;;;;;;5095755;28;20032;-74
2022/05/01 04:03:30;;;;;;;37.10;24.63;;;11.60;99.90;;;;;;5097086;28;20099;-74
2022/05/01 04:05:56;;;;;;;33.08;23.35;;;11.60;99.90;;;;;;5099330;28;20066;-74
2022/05/01 04:08:22;;;;;;;44.08;27.05;;;11.60;99.90;;;;;;5100803;28;20020;-75
2022/05/01 04:10:49;;;;;;;32.83;24.10;;;11.60;99.90;;;;;;5100928;28;20020;-74
2022/05/01 04:13:15;;;;;;;31.23;23.55;;;11.50;99.90;;;;;;5100878;28;20047;-74
2022/05/01 04:15:42;;;;;;;35.63;24.58;;;11.50;99.90;;;;;;5092356;28;20024;-74
2022/05/01 04:18:09;;;;;;;38.55;25.25;;;11.50;99.90;;;;;;5093998;28;20017;-74
2022/05/01 04:20:37;;;;;;;35.28;25.55;;;11.60;99.90;;;;;;5099913;28;20077;-75
2022/05/01 04:23:04;;;;;;;39.00;26.35;;;11.60;99.90;;;;;;5100480;28;20507;-74
2022/05/01 04:25:30;;;;;;;36.03;25.15;;;11.60;99.90;;;;;;5101105;28;20020;-74
2022/05/01 04:28:08;;;;;;;33.10;24.15;;;11.60;99.90;;;;;;5099073;28;20669;-75
2022/05/01 04:30:34;;;;;;;32.42;23.70;;;11.70;99.90;;;;;;5098920;28;20377;-75
2022/05/01 04:33:04;;;;;;;32.28;23.77;;;11.70;99.90;;;;;;5100266;28;20073;-75
2022/05/01 04:35:38;;;;;;;40.75;25.80;;;11.80;99.90;;;;;;5100469;28;20107;-74
2022/05/01 04:38:10;;;;;;;38.88;26.50;;;11.80;99.90;;;;;;5099228;28;20023;-74
2022/05/01 04:40:38;;;;;;;34.42;24.63;;;11.80;99.90;;;;;;5100515;28;20111;-74
2022/05/01 04:43:17;;;;;;;37.88;27.08;;;11.80;99.90;;;;;;5098898;28;20030;-74
2022/05/01 04:45:44;;;;;;;36.35;26.25;;;11.80;99.90;;;;;;5098371;28;20048;-74
2022/05/01 04:48:11;;;;;;;35.60;25.75;;;11.70;99.90;;;;;;5098907;28;20032;-74
2022/05/01 04:50:38;;;;;;;38.83;25.63;;;11.70;99.90;;;;;;5100198;28;20023;-74
2022/05/01 04:53:09;;;;;;;37.40;25.85;;;11.70;99.90;;;;;;5098920;28;20049;-75
2022/05/01 04:55:39;;;;;;;37.47;28.23;;;11.70;99.90;;;;;;5100045;28;20016;-74
2022/05/01 04:58:05;;;;;;;42.95;26.58;;;11.60;99.90;;;;;;5100110;28;20020;-75
2022/05/01 05:00:33;;;;;;;43.78;27.00;;;11.60;99.90;;;;;;5098191;28;20023;-74
2022/05/01 05:02:59;;;;;;;45.58;29.45;;;11.60;99.90;;;;;;5099878;28;20074;-73
2022/05/01 05:05:27;;;;;;;38.55;27.63;;;11.60;99.90;;;;;;5093946;28;20031;-74
2022/05/01 05:07:54;;;;;;;41.33;26.73;;;11.60;99.90;;;;;;5100198;28;20012;-74
2022/05/01 05:10:20;;;;;;;40.13;27.90;;;11.60;99.90;;;;;;5099764;28;20622;-74
2022/05/01 05:12:48;;;;;;;42.55;28.15;;;11.70;99.90;;;;;;5099811;28;20385;-74
2022/05/01 05:15:16;;;;;;;40.33;27.77;;;11.70;99.90;;;;;;5093935;28;20546;-74
2022/05/01 05:17:43;;;;;;;40.60;28.90;;;11.70;99.90;;;;;;5090581;28;20472;-74
2022/05/01 05:20:11;;;;;;;41.90;28.17;;;11.70;99.90;;;;;;5099816;28;20020;-74
2022/05/01 05:22:37;;;;;;;41.08;27.58;;;11.70;99.90;;;;;;5098285;28;20032;-74
2022/05/01 05:25:04;;;;;;;38.40;26.10;;;11.70;99.90;;;;;;5099750;28;20480;-74
2022/05/01 05:27:30;;;;;;;45.28;27.77;;;11.80;99.90;;;;;;5098184;28;20028;-75
2022/05/01 05:29:57;;;;;;;34.72;25.58;;;11.80;99.90;;;;;;5097604;28;20089;-74
2022/05/01 05:32:24;;;;;;;35.88;26.08;;;11.80;99.90;;;;;;5091742;28;20029;-75
2022/05/01 05:34:50;;;;;;;36.42;25.67;;;11.90;99.90;;;;;;5089473;28;20040;-75
2022/05/01 05:37:17;;;;;;;36.17;25.05;;;11.90;99.90;;;;;;5098005;28;20024;-75
2022/05/01 05:39:44;;;;;;;38.15;25.73;;;12.00;99.90;;;;;;5097808;28;20020;-75
2022/05/01 05:42:10;;;;;;;34.65;24.52;;;12.00;99.90;;;;;;5099610;28;20060;-74
2022/05/01 05:44:36;;;;;;;39.13;28.60;;;12.00;99.90;;;;;;5097224;28;20094;-75
2022/05/01 05:47:03;;;;;;;39.08;25.17;;;12.10;99.90;;;;;;5098971;28;20024;-75
2022/05/01 05:49:29;;;;;;;38.15;26.60;;;12.10;99.90;;;;;;5098789;28;20024;-75
2022/05/01 05:51:54;;;;;;;42.28;25.15;;;12.20;99.90;;;;;;5097671;28;20042;-74
2022/05/01 05:54:20;;;;;;;35.85;25.88;;;12.20;99.90;;;;;;5098685;28;20016;-75
2022/05/01 05:56:46;;;;;;;39.05;26.15;;;12.30;99.90;;;;;;5098862;28;20459;-75
2022/05/01 05:59:12;;;;;;;41.05;26.27;;;12.40;99.90;;;;;;5095721;28;20103;-75
2022/05/01 06:01:38;;;;;;;37.47;23.98;;;12.40;99.90;;;;;;5077931;28;20535;-74
2022/05/01 06:04:04;;;;;;;29.88;22.60;;;12.40;99.90;;;;;;5091362;28;20508;-74
2022/05/01 06:06:30;;;;;;;33.72;23.77;;;12.50;99.90;;;;;;5078301;28;20054;-74
2022/05/01 06:08:56;;;;;;;33.63;22.67;;;12.50;99.90;;;;;;5082177;28;20021;-74
2022/05/01 06:11:22;;;;;;;34.97;26.00;;;12.50;99.90;;;;;;5079295;28;20016;-74
2022/05/01 06:13:47;;;;;;;38.88;25.25;;;12.70;99.90;;;;;;5077092;28;20423;-74
2022/05/01 06:16:13;;;;;;;32.80;22.52;;;12.60;99.90;;;;;;5076467;28;20020;-74
2022/05/01 06:18:39;;;;;;;33.20;24.35;;;12.70;99.90;;;;;;5078671;28;20492;-74
2022/05/01 06:21:05;;;;;;;31.73;20.90;;;12.80;99.90;;;;;;5076796;28;20129;-75
2022/05/01 06:23:31;;;;;;;33.25;22.92;;;12.80;99.90;;;;;;5078595;28;20044;-75
2022/05/01 06:25:56;;;;;;;32.88;22.73;;;12.80;99.90;;;;;;5076600;28;20044;-74
2022/05/01 06:28:22;;;;;;;30.38;23.95;;;12.80;99.90;;;;;;5078112;28;20029;-75
2022/05/01 06:30:51;;;;;;;32.67;23.83;;;12.90;99.90;;;;;;5089480;28;20024;-76
2022/05/01 06:33:18;;;;;;;31.63;22.50;;;13.00;99.90;;;;;;5097977;28;20024;-75
2022/05/01 06:35:46;;;;;;;33.67;22.15;;;13.00;99.90;;;;;;5098200;28;20477;-76
2022/05/01 06:38:12;;;;;;;35.58;23.50;;;13.00;99.90;;;;;;5098258;28;20502;-75
2022/05/01 06:40:38;;;;;;;31.98;22.88;;;13.00;99.90;;;;;;5085487;28;20373;-76
2022/05/01 06:43:05;;;;;;;36.25;24.05;;;13.00;99.90;;;;;;5084203;28;20012;-75
2022/05/01 06:45:32;;;;;;;34.03;24.20;;;13.10;99.90;;;;;;5097467;28;20048;-75
2022/05/01 06:47:58;;;;;;;35.22;24.20;;;13.20;99.90;;;;;;5095150;28;20035;-75
2022/05/01 06:50:23;;;;;;;33.88;22.13;;;13.20;99.90;;;;;;5106770;28;20028;-76
2022/05/01 06:52:49;;;;;;;32.88;23.52;;;13.20;99.90;;;;;;5096419;28;20020;-76
2022/05/01 06:55:18;;;;;;;30.98;22.92;;;13.20;99.90;;;;;;5097844;28;20054;-75
2022/05/01 06:57:44;;;;;;;31.10;23.50;;;13.30;99.90;;;;;;5097586;28;20028;-76
2022/05/01 07:00:11;;;;;;;32.45;22.73;;;13.20;99.90;;;;;;5097413;28;20055;-77
2022/05/01 07:02:44;;;;;;;29.65;22.45;;;13.30;99.90;;;;;;5096685;28;20024;-76
2022/05/01 07:05:10;;;;;;;30.23;21.38;;;13.30;99.90;;;;;;5097840;28;20032;-77
2022/05/01 07:07:36;;;;;;;31.70;22.13;;;13.20;99.90;;;;;;5097641;28;20097;-76
2022/05/01 07:10:02;;;;;;;31.33;23.98;;;13.30;99.90;;;;;;5097284;28;20483;-76
2022/05/01 07:12:28;;;;;;;34.78;23.30;;;13.40;99.90;;;;;;5097680;28;20030;-76
2022/05/01 07:14:54;;;;;;;37.15;23.38;;;13.50;99.90;;;;;;5095730;28;20431;-76
2022/05/01 07:17:19;;;;;;;32.55;21.45;;;13.50;99.90;;;;;;5084074;28;20020;-76
2022/05/01 07:19:45;;;;;;;35.13;22.30;;;13.50;99.90;;;;;;5096066;28;20035;-76
2022/05/01 07:22:13;;;;;;;30.52;21.10;;;13.50;99.90;;;;;;5096031;28;20492;-76
2022/05/01 07:24:39;;;;;;;33.72;23.20;;;13.40;99.90;;;;;;5097313;28;20027;-75
2022/05/01 07:27:05;;;;;;;32.60;23.67;;;13.50;99.90;;;;;;5096129;28;20024;-77
2022/05/01 07:29:31;;;;;;;27.45;18.60;;;13.60;99.90;;;;;;5096770;28;20021;-76
2022/05/01 07:31:57;;;;;;;30.23;21.23;;;13.80;99.90;;;;;;5097379;28;20046;-76
2022/05/01 07:34:23;;;;;;;32.53;22.17;;;13.80;99.90;;;;;;5091913;28;20481;-75
2022/05/01 07:36:48;;;;;;;30.33;22.30;;;13.80;99.90;;;;;;5079631;28;20025;-75
2022/05/01 07:39:14;;;;;;;31.73;22.00;;;13.80;99.90;;;;;;5078691;28;20380;-76
2022/05/01 07:41:41;;;;;;;30.27;21.33;;;13.80;99.90;;;;;;5080854;28;20024;-76
2022/05/01 07:44:08;;;;;;;33.00;22.02;;;14.00;99.90;;;;;;5082685;28;20021;-75
2022/05/01 07:46:35;;;;;;;31.63;23.05;;;13.90;99.90;;;;;;5078488;28;20063;-76
2022/05/01 07:49:01;;;;;;;30.75;20.70;;;13.90;99.90;;;;;;5083005;28;20037;-76
2022/05/01 07:51:27;;;;;;;29.58;20.23;;;13.90;99.90;;;;;;5080364;28;20024;-76
2022/05/01 07:53:53;;;;;;;33.60;22.08;;;13.90;99.90;;;;;;5080507;28;20017;-75
2022/05/01 07:56:20;;;;;;;35.45;22.60;;;13.90;99.90;;;;;;5081735;28;20020;-74
2022/05/01 07:58:45;;;;;;;28.90;20.42;;;14.00;99.90;;;;;;5095439;28;20028;-76
2022/05/01 08:01:11;;;;;;;33.28;22.15;;;14.00;99.90;;;;;;5099711;28;20399;-75
2022/05/01 08:06:22;;;;;;;31.00;22.75;;;14.00;99.90;;;;;;5101089;28;20441;-75
2022/05/01 08:08:49;;;;;;;34.78;22.95;;;14.00;99.90;;;;;;5085116;28;20020;-74
2022/05/01 08:11:14;;;;;;;32.38;22.50;;;14.10;99.90;;;;;;5080162;28;20115;-75
2022/05/01 08:13:40;;;;;;;29.55;21.38;;;14.30;99.90;;;;;;5079709;28;20051;-75
2022/05/01 08:16:06;;;;;;;28.27;20.65;;;14.40;99.90;;;;;;5079626;28;20099;-75
2022/05/01 08:21:17;;;;;;;28.25;19.90;;;14.20;99.90;;;;;;5081248;28;20455;-75
2022/05/01 08:23:43;;;;;;;28.85;18.27;;;14.20;99.90;;;;;;5081277;28;20028;-75
2022/05/01 08:26:11;;;;;;;28.88;20.05;;;14.20;99.90;;;;;;5078554;28;20036;-76
2022/05/01 08:28:39;;;;;;;28.27;20.58;;;14.20;99.90;;;;;;5079685;28;20021;-74
2022/05/01 08:31:06;;;;;;;32.33;21.40;;;14.30;99.90;;;;;;5079559;28;20029;-75
2022/05/01 08:33:33;;;;;;;29.88;22.55;;;14.40;99.90;;;;;;5094728;28;20579;-74
2022/05/01 08:36:02;;;;;;;29.58;23.05;;;14.50;99.90;;;;;;5084230;28;20489;-75
2022/05/01 08:38:28;;;;;;;28.67;21.85;;;14.80;99.90;;;;;;5081922;28;20013;-75
2022/05/01 08:40:54;;;;;;;29.73;22.45;;;14.90;99.90;;;;;;5089833;28;20032;-75
2022/05/01 08:43:23;;;;;;;28.17;23.05;;;15.00;99.90;;;;;;5071716;28;20515;-75
2022/05/01 08:46:18;;;;;;;29.65;20.30;;;15.00;99.90;;;;;;5093488;28;20473;-74
2022/05/01 08:48:56;;;;;;;28.98;20.35;;;15.20;99.90;;;;;;5098594;28;20444;-75
2022/05/01 08:51:23;;;;;;;29.60;20.67;;;15.20;99.90;;;;;;5098592;28;20081;-74
2022/05/01 08:53:52;;;;;;;27.90;21.13;;;15.30;99.90;;;;;;5099001;28;20027;-75
2022/05/01 08:56:18;;;;;;;23.13;17.20;;;15.40;99.90;;;;;;5099029;28;20024;-75
2022/05/01 08:58:45;;;;;;;33.10;21.55;;;15.20;99.90;;;;;;5099767;28;20034;-74
2022/05/01 09:01:11;;;;;;;28.50;19.67;;;15.10;99.90;;;;;;5091017;28;20098;-74
2022/05/01 09:03:39;;;;;;;30.42;20.08;;;15.10;99.90;;;;;;5099881;28;20031;-75
2022/05/01 09:06:05;;;;;;;30.92;20.48;;;15.30;99.90;;;;;;5098668;28;20024;-74
2022/05/01 09:08:32;;;;;;;29.13;19.98;;;15.50;99.90;;;;;;5098658;28;20031;-74
2022/05/01 09:12:49;;;;;;;25.52;18.83;;;15.50;99.90;;;;;;5099798;28;20020;-74
2022/05/01 09:13:47;;;;;;;31.33;19.60;;;15.80;99.90;;;;;;5099093;28;20028;-74
2022/05/01 09:16:13;;;;;;;24.90;18.40;;;15.80;99.90;;;;;;5087529;28;20021;-74
2022/05/01 09:18:46;;;;;;;27.42;21.65;;;15.80;99.90;;;;;;5096917;28;20437;-75
2022/05/01 09:21:13;;;;;;;26.05;18.42;;;15.50;99.90;;;;;;5099565;28;20400;-74
2022/05/01 09:23:47;;;;;;;25.88;16.67;;;15.40;99.90;;;;;;5098061;28;20035;-74
2022/05/01 09:26:18;;;;;;;25.98;18.75;;;15.60;99.90;;;;;;5091521;28;20081;-74
2022/05/01 09:28:52;;;;;;;24.42;18.23;;;15.80;99.90;;;;;;5099478;28;20024;-74
2022/05/01 09:31:38;;;;;;;22.58;16.23;;;15.90;99.90;;;;;;5099303;28;20027;-74
2022/05/01 09:34:24;;;;;;;24.08;18.65;;;15.90;99.90;;;;;;5097867;28;20514;-75
2022/05/01 09:36:51;;;;;;;27.42;19.25;;;16.00;99.90;;;;;;5098886;28;20023;-74
2022/05/01 09:39:22;;;;;;;25.90;18.55;;;16.10;99.90;;;;;;5099282;28;20487;-73
2022/05/01 09:41:50;;;;;;;29.75;16.98;;;16.20;99.90;;;;;;5091233;28;20121;-74
2022/05/01 09:44:17;;;;;;;24.35;17.95;;;16.40;99.90;;;;;;5093567;28;20021;-74
2022/05/01 09:46:47;;;;;;;23.92;17.77;;;16.30;99.90;;;;;;5097445;28;20066;-74
2022/05/01 09:49:18;;;;;;;24.53;17.90;;;16.20;99.90;;;;;;5098828;28;20030;-75
2022/05/01 09:51:47;;;;;;;;;;;16.40;99.90;;;;;;5099485;28;20529;-74
2022/05/01 09:54:22;;;;;;;25.13;18.02;;;16.40;99.90;;;;;;5098894;28;20402;-74
2022/05/01 09:56:51;;;;;;;25.52;17.75;;;16.30;99.90;;;;;;5098416;28;20055;-74
2022/05/01 09:59:21;;;;;;;27.23;18.60;;;16.20;99.90;;;;;;5084742;28;20119;-75
2022/05/01 10:02:13;;;;;;;26.48;17.15;;;16.20;99.90;;;;;;5098714;28;20085;-75
2022/05/01 10:04:40;;;;;;;31.92;18.63;;;16.50;99.90;;;;;;5093524;28;20553;-74
2022/05/01 10:07:08;;;;;;;25.30;17.65;;;16.40;99.90;;;;;;5098785;28;20024;-74
2022/05/01 10:09:35;;;;;;;27.20;18.80;;;16.50;99.90;;;;;;5097586;28;20020;-75
2022/05/01 10:12:06;;;;;;;25.30;18.73;;;16.50;99.90;;;;;;5085520;28;20425;-75
2022/05/01 10:14:33;;;;;;;19.80;16.65;;;16.60;99.90;;;;;;5097045;28;20017;-74
2022/05/01 10:17:00;;;;;;;21.15;16.35;;;16.50;99.90;;;;;;5084915;28;20020;-74
2022/05/01 10:19:26;;;;;;;26.65;16.23;;;16.70;99.90;;;;;;5097485;28;20034;-74
2022/05/01 10:21:57;;;;;;;23.02;16.73;;;16.70;99.90;;;;;;5098375;28;20028;-74
2022/05/01 10:24:23;;;;;;;;;;;16.80;99.90;;;;;;5096555;28;20016;-74
2022/05/01 10:27:00;;;;;;;24.08;17.17;;;16.90;99.90;;;;;;5093199;28;19907;-75
2022/05/01 10:32:57;;;;;;;32.92;19.23;;;17.00;99.90;;;;;;5098441;28;20031;-75
2022/05/01 10:35:34;;;;;;;22.52;16.48;;;17.20;99.90;;;;;;5098825;28;20059;-74
2022/05/01 10:38:25;;;;;;;22.58;16.73;;;17.20;99.90;;;;;;5098378;28;20024;-74
2022/05/01 10:40:51;;;;;;;25.00;15.73;;;17.20;99.90;;;;;;5096949;28;20476;-73
2022/05/01 10:43:38;;;;;;;24.58;16.63;;;17.20;99.90;;;;;;5098225;28;20043;-74
2022/05/01 10:46:25;;;;;;;19.75;14.85;;;17.30;99.90;;;;;;5098313;28;20048;-74
2022/05/01 10:48:51;;;;;;;21.90;16.20;;;17.60;99.90;;;;;;5098294;28;20040;-73
2022/05/01 10:51:30;;;;;;;20.92;14.45;;;17.40;99.90;;;;;;5098590;28;20105;-74
2022/05/01 10:54:14;;;;;;;20.13;12.77;;;17.60;99.90;;;;;;5090945;28;20028;-74
2022/05/01 10:56:42;;;;;;;20.48;13.57;;;17.60;99.90;;;;;;5097940;28;20028;-73
2022/05/01 10:59:30;;;;;;;24.55;17.02;;;17.60;99.90;;;;;;5097381;28;20024;-73
2022/05/01 11:02:03;;;;;;;26.30;16.15;;;17.50;99.90;;;;;;5097709;28;20039;-74
2022/05/01 11:04:38;;;;;;;19.17;13.07;;;17.40;99.90;;;;;;5096548;28;20020;-73
2022/05/01 11:07:05;;;;;;;21.02;13.80;;;17.50;99.90;;;;;;5083088;28;20032;-73
2022/05/01 11:09:35;;;;;;;20.52;13.77;;;17.70;99.90;;;;;;5097917;28;20472;-73
2022/05/01 11:12:09;;;;;;;18.13;12.23;;;17.80;99.90;;;;;;5097489;28;20031;-74
2022/05/01 11:14:50;;;;;;;16.83;13.45;;;17.70;99.90;;;;;;5097292;28;20051;-74
2022/05/01 11:17:26;;;;;;;19.05;14.55;;;17.80;99.90;;;;;;5072750;28;20024;-73
2022/05/01 11:19:53;;;;;;;22.35;13.88;;;17.80;99.90;;;;;;5097819;28;20051;-74
2022/05/01 11:22:28;;;;;;;16.63;12.07;;;17.80;99.90;;;;;;5090560;28;20039;-73
2022/05/01 11:24:54;;;;;;;16.25;11.57;;;17.90;99.90;;;;;;5097686;28;20027;-74
2022/05/01 11:27:21;;;;;;;17.27;11.70;;;18.10;99.90;;;;;;5097351;28;20032;-75
2022/05/01 11:30:06;;;;;;;17.90;11.95;;;18.10;99.90;;;;;;5086852;28;20112;-74
2022/05/01 11:32:50;;;;;;;19.75;12.75;;;18.30;99.90;;;;;;5076678;28;20119;-74
2022/05/01 11:35:16;;;;;;;20.88;11.35;;;18.30;99.90;;;;;;5077034;28;20073;-76
2022/05/01 11:38:06;;;;;;;19.13;12.00;;;18.10;99.90;;;;;;5081081;28;20066;-75
2022/05/01 11:40:32;;;;;;;14.48;11.38;;;18.10;99.90;;;;;;5072785;28;20028;-74
2022/05/01 11:43:15;;;;;;;13.80;9.95;;;18.30;99.90;;;;;;5077379;28;20047;-75
2022/05/01 11:45:42;;;;;;;17.35;11.75;;;18.40;99.90;;;;;;5076273;28;20067;-74
2022/05/01 11:48:17;;;;;;;17.02;11.10;;;18.50;99.90;;;;;;5078060;28;20073;-73
2022/05/01 11:50:45;;;;;;;12.95;8.80;;;18.60;99.90;;;;;;5080962;28;20023;-76
2022/05/01 11:53:26;;;;;;;16.63;10.38;;;18.60;99.90;;;;;;5072656;28;20521;-76
2022/05/01 12:04:33;;;;;;;18.40;9.25;;;19.10;99.90;;;;;;5079451;28;20437;-74
2022/05/01 12:07:16;;;;;;;15.77;11.25;;;19.20;99.90;;;;;;5081002;28;20050;-74
2022/05/01 12:09:43;;;;;;;18.08;10.73;;;19.30;99.90;;;;;;5074944;28;20439;-74
2022/05/01 12:12:12;;;;;;;16.23;9.73;;;19.30;99.90;;;;;;5075924;28;20070;-74
2022/05/01 12:14:39;;;;;;;10.10;8.10;;;19.50;99.90;;;;;;5076915;28;20051;-73
2022/05/01 12:17:14;;;;;;;16.30;9.82;;;19.70;99.90;;;;;;5078448;28;20536;-74
2022/05/01 12:19:42;;;;;;;14.20;8.90;;;19.70;99.90;;;;;;5074844;28;20025;-75
2022/05/01 12:22:13;;;;;;;11.27;7.70;;;19.80;99.90;;;;;;5075231;28;20033;-74
2022/05/01 12:24:39;;;;;;;17.23;7.95;;;19.70;99.90;;;;;;5078297;28;20546;-75
2022/05/01 12:27:09;;;;;;;12.30;7.93;;;19.70;99.90;;;;;;5080093;28;20017;-73
2022/05/01 12:29:37;;;;;;;10.35;7.10;;;19.60;99.60;;;;;;5083281;28;20024;-75
2022/05/01 12:32:08;;;;;;;13.80;8.38;;;19.80;99.60;;;;;;5083079;28;20020;-74
2022/05/01 12:34:55;;;;;;;10.77;7.78;;;19.80;99.40;;;;;;5079886;28;20020;-73
2022/05/01 12:37:41;;;;;;;12.23;7.00;;;20.00;99.90;;;;;;5081154;28;20024;-75
2022/05/01 12:40:12;;;;;;;12.70;7.43;;;20.00;97.30;;;;;;5077883;28;20033;-74
2022/05/01 12:45:44;;;;;;;12.93;8.15;;;20.20;98.30;;;;;;5079859;28;20090;-74
2022/05/01 12:48:13;;;;;;;12.25;7.85;;;20.10;98.70;;;;;;5078659;28;20461;-75
2022/05/01 12:50:40;;;;;;;10.45;7.43;;;20.10;97.60;;;;;;5083457;28;20542;-75
2022/05/01 12:53:22;;;;;;;11.15;6.82;;;20.00;97.00;;;;;;5079514;28;20017;-74
2022/05/01 12:55:48;;;;;;;10.75;6.97;;;20.00;98.20;;;;;;5079359;28;20047;-75
2022/05/01 12:58:25;;;;;;;14.05;7.25;;;20.10;97.30;;;;;;5078807;28;20425;-75
2022/05/01 13:00:51;;;;;;;11.02;7.55;;;20.00;96.70;;;;;;5081693;28;20386;-73
2022/05/01 13:03:29;;;;;;;14.13;6.97;;;20.10;97.00;;;;;;5080787;28;20040;-75
2022/05/01 13:06:05;;;;;;;9.32;7.18;;;20.10;96.70;;;;;;5080334;28;20032;-74
2022/05/01 13:08:40;;;;;;;11.93;7.22;;;20.40;96.10;;;;;;5082126;28;20020;-73
2022/05/01 13:11:15;;;;;;;11.38;6.80;;;20.40;95.80;;;;;;5079607;28;20027;-75